createdAt,value
2019-01-29T00:02:14.375Z,5.90
2019-01-29T00:04:44.677Z,5.50
2019-01-29T00:07:20.481Z,5.07
2019-01-29T00:09:50.842Z,4.90
2019-01-29T00:12:23.146Z,5.17
2019-01-29T00:14:55.149Z,5.47
2019-01-29T00:17:25.950Z,5.72
2019-01-29T00:20:01.045Z,4.93
2019-01-29T00:22:33.664Z,5.65
2019-01-29T00:25:04.268Z,5.90
2019-01-29T00:27:36.270Z,5.97
2019-01-29T00:30:07.188Z,5.87
2019-01-29T00:32:47.049Z,6.73
2019-01-29T00:35:17.717Z,7.13
2019-01-29T00:37:57.053Z,7.10
2019-01-29T00:40:29.304Z,6.40
2019-01-29T00:43:02.793Z,6.97
2019-01-29T00:45:32.734Z,6.07
2019-01-29T00:48:03.518Z,6.70
2019-01-29T00:50:37.382Z,6.60
2019-01-29T00:53:09.586Z,6.30
2019-01-29T00:55:40.187Z,6.27
2019-01-29T00:58:10.819Z,6.22
2019-01-29T01:00:41.166Z,6.20
2019-01-29T01:03:17.185Z,6.28
2019-01-29T01:05:47.474Z,7.00
2019-01-29T01:08:19.772Z,6.50
2019-01-29T01:10:50.260Z,6.20
2019-01-29T01:13:20.998Z,6.40
2019-01-29T01:15:53.020Z,6.07
2019-01-29T01:18:23.569Z,5.60
2019-01-29T01:20:55.356Z,5.70
2019-01-29T01:23:28.559Z,7.33
2019-01-29T01:25:59.457Z,6.03
2019-01-29T01:28:40.569Z,5.87
2019-01-29T01:31:11.365Z,6.57
2019-01-29T01:33:42.178Z,7.22
2019-01-29T01:36:12.847Z,6.07
2019-01-29T01:38:43.411Z,8.80
2019-01-29T01:41:14.986Z,7.53
2019-01-29T01:43:45.768Z,6.58
2019-01-29T01:46:17.306Z,8.50
2019-01-29T01:48:47.698Z,8.40
2019-01-29T01:51:23.041Z,7.57
2019-01-29T01:53:53.869Z,8.57
2019-01-29T01:56:29.132Z,8.13
2019-01-29T01:58:59.701Z,8.48
2019-01-29T02:01:30.204Z,7.50
2019-01-29T02:04:00.490Z,7.73
2019-01-29T02:06:32.279Z,8.33
2019-01-29T02:09:05.631Z,8.17
2019-01-29T02:11:37.657Z,8.57
2019-01-29T02:14:10.960Z,8.73
2019-01-29T02:16:42.843Z,8.70
2019-01-29T02:19:19.282Z,8.20
2019-01-29T02:21:51.199Z,9.33
2019-01-29T02:24:21.825Z,8.83
2019-01-29T02:26:53.979Z,8.93
2019-01-29T02:29:25.372Z,9.30
2019-01-29T02:32:06.517Z,8.20
2019-01-29T02:34:34.969Z,9.57
2019-01-29T02:37:05.356Z,9.60
2019-01-29T02:39:38.202Z,9.43
2019-01-29T02:42:08.503Z,10.67
2019-01-29T02:44:44.225Z,10.94
2019-01-29T02:47:14.590Z,11.67
2019-01-29T02:49:45.289Z,12.13
2019-01-29T02:52:15.818Z,11.13
2019-01-29T02:54:46.591Z,11.87
2019-01-29T02:57:16.882Z,11.33
2019-01-29T02:59:48.780Z,11.12
2019-01-29T03:02:19.128Z,10.73
2019-01-29T03:04:49.681Z,10.87
2019-01-29T03:07:22.164Z,10.93
2019-01-29T03:09:53.710Z,10.10
2019-01-29T03:12:24.144Z,9.40
2019-01-29T03:14:54.652Z,11.37
2019-01-29T03:17:25.048Z,9.60
2019-01-29T03:19:56.999Z,8.07
2019-01-29T03:22:27.638Z,7.08
2019-01-29T03:25:00.363Z,7.63
2019-01-29T03:27:30.755Z,6.90
2019-01-29T03:30:01.175Z,7.47
2019-01-29T03:32:39.049Z,6.72
2019-01-29T03:35:09.709Z,6.70
2019-01-29T03:37:50.093Z,6.43
2019-01-29T03:40:21.606Z,6.57
2019-01-29T03:42:54.775Z,6.47
2019-01-29T03:45:28.390Z,7.22
2019-01-29T03:47:58.994Z,6.13
2019-01-29T03:50:31.006Z,6.56
2019-01-29T03:53:01.599Z,7.47
2019-01-29T03:55:37.454Z,7.10
2019-01-29T03:58:07.815Z,7.67
2019-01-29T04:00:39.411Z,7.63
2019-01-29T04:03:09.794Z,9.13
2019-01-29T04:05:41.655Z,9.67
2019-01-29T04:08:13.399Z,10.30
2019-01-29T04:10:43.711Z,10.10
2019-01-29T04:13:24.966Z,9.67
2019-01-29T04:15:53.318Z,10.95
2019-01-29T04:18:23.656Z,10.47
2019-01-29T04:20:54.293Z,10.90
2019-01-29T04:23:24.899Z,10.90
2019-01-29T04:25:56.629Z,9.47
2019-01-29T04:28:27.302Z,9.80
2019-01-29T04:30:57.591Z,9.53
2019-01-29T04:33:28.204Z,9.60
2019-01-29T04:35:58.558Z,9.00
2019-01-29T04:38:28.911Z,9.90
2019-01-29T04:40:59.251Z,9.40
2019-01-29T04:43:29.876Z,9.73
2019-01-29T04:46:01.293Z,9.30
2019-01-29T04:48:34.629Z,10.43
2019-01-29T04:51:05.064Z,10.73
2019-01-29T04:53:35.401Z,10.15
2019-01-29T04:56:06.248Z,10.23
2019-01-29T04:58:37.925Z,10.45
2019-01-29T05:01:09.436Z,10.47
2019-01-29T05:03:43.004Z,11.08
2019-01-29T05:06:13.323Z,11.63
2019-01-29T05:08:50.811Z,12.47
2019-01-29T05:11:21.251Z,13.53
2019-01-29T05:13:54.697Z,14.07
2019-01-29T05:16:25.255Z,16.93
2019-01-29T05:18:56.381Z,15.45
2019-01-29T05:21:26.689Z,17.17
2019-01-29T05:24:06.444Z,17.98
2019-01-29T05:26:32.627Z,19.50
2019-01-29T05:29:04.622Z,18.32
2019-01-29T05:31:34.930Z,17.53
2019-01-29T05:34:05.645Z,18.30
2019-01-29T05:36:35.948Z,19.50
2019-01-29T05:39:09.813Z,20.27
2019-01-29T05:41:40.153Z,19.90
2019-01-29T05:44:10.530Z,20.13
2019-01-29T05:46:41.300Z,20.17
2019-01-29T05:49:14.180Z,20.83
2019-01-29T05:51:45.225Z,19.42
2019-01-29T05:54:16.744Z,19.70
2019-01-29T05:56:47.603Z,19.03
2019-01-29T05:59:21.987Z,19.53
2019-01-29T06:01:52.519Z,18.95
2019-01-29T06:04:34.317Z,19.23
2019-01-29T06:07:04.832Z,19.30
2019-01-29T06:09:43.820Z,19.45
2019-01-29T06:12:11.927Z,18.47
2019-01-29T06:14:46.352Z,18.57
2019-01-29T06:17:16.741Z,18.97
2019-01-29T06:19:47.778Z,19.93
2019-01-29T06:22:18.238Z,21.17
2019-01-29T06:24:48.619Z,20.07
2019-01-29T06:27:19.057Z,21.47
2019-01-29T06:29:49.363Z,21.07
2019-01-29T06:32:22.837Z,22.73
2019-01-29T06:34:53.145Z,21.90
2019-01-29T06:37:27.548Z,23.00
2019-01-29T06:39:58.850Z,23.10
2019-01-29T06:42:29.524Z,23.80
2019-01-29T06:44:59.851Z,22.83
2019-01-29T06:47:30.745Z,23.32
2019-01-29T06:50:04.366Z,23.73
2019-01-29T06:52:34.830Z,24.43
2019-01-29T06:55:06.710Z,24.77
2019-01-29T06:57:43.141Z,28.10
2019-01-29T07:00:28.104Z,30.87
2019-01-29T07:02:59.803Z,26.97
2019-01-29T07:05:32.678Z,27.93
2019-01-29T07:08:04.442Z,26.17
2019-01-29T07:10:36.939Z,24.40
2019-01-29T07:13:11.789Z,23.87
2019-01-29T07:16:08.012Z,21.55
2019-01-29T07:18:46.504Z,22.90
2019-01-29T07:21:19.504Z,21.07
2019-01-29T07:23:50.180Z,21.27
2019-01-29T07:26:27.377Z,21.77
2019-01-29T07:28:53.904Z,20.72
2019-01-29T07:31:24.494Z,20.67
2019-01-29T07:33:58.056Z,20.68
2019-01-29T07:36:28.850Z,21.83
2019-01-29T07:38:59.526Z,20.92
2019-01-29T07:41:36.987Z,19.93
2019-01-29T07:44:07.685Z,21.75
2019-01-29T07:46:38.078Z,21.33
2019-01-29T07:49:10.056Z,21.82
2019-01-29T07:51:40.427Z,21.70
2019-01-29T07:54:11.351Z,21.40
2019-01-29T07:56:41.749Z,21.25
2019-01-29T07:59:16.543Z,21.90
2019-01-29T08:01:48.782Z,20.87
2019-01-29T08:04:19.634Z,19.25
2019-01-29T08:06:50.134Z,20.00
2019-01-29T08:09:20.923Z,20.63
2019-01-29T08:11:51.473Z,20.00
2019-01-29T08:14:22.269Z,19.80
2019-01-29T08:16:54.327Z,21.00
2019-01-29T08:19:24.643Z,20.20
2019-01-29T08:21:55.278Z,20.20
2019-01-29T08:24:27.863Z,19.13
2019-01-29T08:26:58.640Z,18.50
2019-01-29T08:29:30.648Z,19.30
2019-01-29T08:32:04.107Z,19.77
2019-01-29T08:34:34.588Z,17.53
2019-01-29T08:37:05.005Z,18.23
2019-01-29T08:39:35.535Z,18.97
2019-01-29T08:42:06.176Z,18.23
2019-01-29T08:44:36.762Z,16.83
2019-01-29T08:47:10.525Z,16.68
2019-01-29T08:49:41.018Z,17.03
2019-01-29T08:52:13.724Z,16.82
2019-01-29T08:54:44.097Z,15.47
2019-01-29T08:57:17.699Z,15.75
2019-01-29T08:59:48.065Z,15.17
2019-01-29T09:02:20.470Z,13.48
2019-01-29T09:04:52.511Z,13.27
2019-01-29T09:07:23.403Z,14.20
2019-01-29T09:09:57.784Z,14.57
2019-01-29T09:12:28.694Z,13.07
2019-01-29T09:14:59.195Z,13.10
2019-01-29T09:17:33.839Z,12.78
2019-01-29T09:20:04.691Z,17.17
2019-01-29T09:22:39.662Z,12.50
2019-01-29T09:25:19.828Z,12.83
2019-01-29T09:27:47.429Z,12.33
2019-01-29T09:30:17.769Z,13.43
2019-01-29T09:32:51.905Z,12.23
2019-01-29T09:35:22.513Z,13.03
2019-01-29T09:37:55.782Z,12.78
2019-01-29T09:40:26.238Z,11.47
2019-01-29T09:42:57.019Z,11.68
2019-01-29T09:45:29.277Z,11.33
2019-01-29T09:47:59.556Z,11.50
2019-01-29T09:50:29.885Z,10.17
2019-01-29T09:53:00.388Z,11.87
2019-01-29T09:55:32.140Z,12.23
2019-01-29T09:58:03.246Z,12.35
2019-01-29T10:00:38.134Z,12.73
2019-01-29T10:03:08.509Z,10.73
2019-01-29T10:05:43.679Z,11.83
2019-01-29T10:08:14.597Z,11.95
2019-01-29T10:10:51.595Z,11.90
2019-01-29T10:13:22.140Z,10.35
2019-01-29T10:15:52.634Z,10.60
2019-01-29T10:18:26.148Z,10.40
2019-01-29T10:20:56.439Z,12.13
2019-01-29T10:23:31.653Z,10.27
2019-01-29T10:26:02.061Z,9.67
2019-01-29T10:28:37.078Z,10.32
2019-01-29T10:31:07.352Z,9.87
2019-01-29T10:33:38.456Z,10.04
2019-01-29T10:36:08.935Z,11.17
2019-01-29T10:38:41.861Z,11.12
2019-01-29T10:41:12.640Z,11.17
2019-01-29T10:43:44.589Z,10.23
2019-01-29T10:46:15.336Z,9.67
2019-01-29T10:48:48.375Z,10.20
2019-01-29T10:51:19.133Z,9.27
2019-01-29T10:53:51.033Z,9.18
2019-01-29T10:56:21.427Z,9.63
2019-01-29T10:58:53.352Z,9.00
2019-01-29T11:01:25.801Z,8.93
2019-01-29T11:03:56.698Z,9.27
2019-01-29T11:06:27.035Z,9.43
2019-01-29T11:08:57.512Z,8.50
2019-01-29T11:11:28.150Z,8.97
2019-01-29T11:13:59.690Z,7.83
2019-01-29T11:16:30.095Z,8.23
2019-01-29T11:19:03.395Z,8.70
2019-01-29T11:21:36.524Z,8.03
2019-01-29T11:24:08.098Z,8.03
2019-01-29T11:26:38.895Z,7.87
2019-01-29T11:29:09.365Z,6.97
2019-01-29T11:31:40.994Z,5.93
2019-01-29T11:34:11.489Z,5.87
2019-01-29T11:36:43.043Z,5.30
2019-01-29T11:39:24.763Z,4.90
2019-01-29T11:41:50.358Z,4.73
2019-01-29T11:44:20.723Z,4.97
2019-01-29T11:46:51.403Z,5.10
2019-01-29T11:49:21.912Z,4.83
2019-01-29T11:51:52.295Z,5.87
2019-01-29T11:54:24.396Z,6.07
2019-01-29T11:56:55.102Z,6.20
2019-01-29T11:59:25.521Z,5.80
2019-01-29T12:01:56.437Z,5.58
2019-01-29T12:04:27.817Z,5.97
2019-01-29T12:06:58.617Z,5.47
2019-01-29T12:09:29.019Z,4.90
2019-01-29T12:12:00.822Z,5.78
2019-01-29T12:14:33.550Z,5.27
2019-01-29T12:17:04.971Z,5.42
2019-01-29T12:19:35.668Z,5.90
2019-01-29T12:22:07.488Z,6.08
2019-01-29T12:24:37.925Z,5.63
2019-01-29T12:27:12.796Z,5.47
2019-01-29T12:29:44.474Z,5.50
2019-01-29T12:32:15.165Z,5.20
2019-01-29T12:34:46.795Z,5.28
2019-01-29T12:37:19.010Z,4.97
2019-01-29T12:39:52.230Z,4.40
2019-01-29T12:42:25.902Z,4.47
2019-01-29T12:44:56.604Z,4.50
2019-01-29T12:47:26.907Z,3.80
2019-01-29T12:49:57.657Z,3.77
2019-01-29T12:52:34.555Z,4.00
2019-01-29T12:55:06.393Z,3.50
2019-01-29T12:57:46.749Z,4.50
2019-01-29T13:00:20.429Z,4.10
2019-01-29T13:02:51.501Z,3.72
2019-01-29T13:05:22.377Z,3.23
2019-01-29T13:07:53.044Z,3.27
2019-01-29T13:10:24.012Z,3.50
2019-01-29T13:12:58.831Z,3.15
2019-01-29T13:15:29.986Z,3.20
2019-01-29T13:18:00.720Z,3.58
2019-01-29T13:20:31.495Z,3.00
2019-01-29T13:23:02.036Z,2.90
2019-01-29T13:25:32.367Z,2.97
2019-01-29T13:28:04.450Z,2.77
2019-01-29T13:30:37.740Z,2.70
2019-01-29T13:33:12.940Z,2.60
2019-01-29T13:35:46.150Z,2.87
2019-01-29T13:38:16.623Z,2.70
2019-01-29T13:40:47.421Z,2.70
2019-01-29T13:43:19.263Z,2.70
2019-01-29T13:45:49.873Z,2.80
2019-01-29T13:48:21.840Z,2.52
2019-01-29T13:50:58.387Z,2.30
2019-01-29T13:53:29.657Z,2.50
2019-01-29T13:56:03.206Z,2.17
2019-01-29T13:58:48.784Z,2.30
2019-01-29T14:01:07.782Z,2.20
2019-01-29T14:03:44.886Z,2.60
2019-01-29T14:06:15.655Z,2.40
2019-01-29T14:08:54.624Z,2.35
2019-01-29T14:11:35.290Z,2.43
2019-01-29T14:14:09.602Z,2.10
2019-01-29T14:16:42.517Z,2.10
2019-01-29T14:19:13.091Z,2.43
2019-01-29T14:21:44.957Z,2.07
2019-01-29T14:24:15.575Z,2.23
2019-01-29T14:26:47.879Z,2.30
2019-01-29T14:29:19.733Z,2.37
2019-01-29T14:31:51.042Z,2.20
2019-01-29T14:34:21.787Z,2.50
2019-01-29T14:36:54.242Z,2.20
2019-01-29T14:40:01.968Z,2.43
2019-01-29T14:42:37.248Z,2.53
2019-01-29T14:45:15.533Z,3.03
2019-01-29T14:47:45.775Z,2.80
2019-01-29T14:50:19.979Z,2.60
2019-01-29T14:52:50.524Z,3.00
2019-01-29T14:55:23.734Z,2.86
2019-01-29T14:57:54.423Z,2.70
2019-01-29T15:00:25.779Z,2.87
2019-01-29T15:02:56.162Z,2.93
2019-01-29T15:05:27.243Z,2.67
2019-01-29T15:07:58.717Z,2.87
2019-01-29T15:10:31.213Z,2.70
2019-01-29T15:13:01.597Z,3.30
2019-01-29T15:15:35.013Z,2.90
2019-01-29T15:18:17.771Z,3.10
2019-01-29T15:20:48.777Z,3.00
2019-01-29T15:27:05.455Z,3.70
2019-01-29T15:29:29.844Z,3.73
2019-01-29T15:32:00.622Z,4.05
2019-01-29T15:34:31.371Z,3.27
2019-01-29T15:37:04.137Z,3.76
2019-01-29T15:39:34.825Z,3.57
2019-01-29T15:42:07.500Z,3.72
2019-01-29T15:44:40.489Z,3.20
2019-01-29T15:47:14.722Z,3.60
2019-01-29T15:49:45.143Z,3.10
2019-01-29T15:52:23.812Z,3.46
2019-01-29T15:54:52.248Z,2.80
2019-01-29T15:57:24.113Z,2.90
2019-01-29T16:00:31.724Z,3.37
2019-01-29T16:02:36.187Z,3.03
2019-01-29T16:05:08.541Z,2.80
2019-01-29T16:07:41.552Z,2.97
2019-01-29T16:10:22.566Z,3.27
2019-01-29T16:12:50.123Z,3.58
2019-01-29T16:15:40.313Z,3.40
2019-01-29T16:18:13.415Z,3.50
2019-01-29T16:20:47.686Z,4.00
2019-01-29T16:23:18.332Z,3.50
2019-01-29T16:25:51.411Z,3.40
2019-01-29T16:28:22.206Z,3.87
2019-01-29T16:30:54.499Z,3.10
2019-01-29T16:33:25.369Z,3.77
2019-01-29T16:35:57.555Z,4.30
2019-01-29T16:38:28.373Z,4.37
2019-01-29T16:41:00.615Z,4.03
2019-01-29T16:43:31.133Z,3.93
2019-01-29T16:46:01.907Z,3.92
2019-01-29T16:48:32.624Z,4.70
2019-01-29T16:51:05.299Z,4.40
2019-01-29T16:53:36.105Z,4.40
2019-01-29T16:56:09.191Z,4.33
2019-01-29T16:58:39.719Z,4.07
2019-01-29T17:01:11.068Z,4.70
2019-01-29T17:03:41.486Z,4.25
2019-01-29T17:06:12.678Z,4.58
2019-01-29T17:08:43.445Z,3.97
2019-01-29T17:11:13.806Z,4.60
2019-01-29T17:13:44.733Z,3.95
2019-01-29T17:16:15.292Z,3.70
2019-01-29T17:18:45.775Z,3.93
2019-01-29T17:21:16.124Z,3.60
2019-01-29T17:23:47.199Z,4.00
2019-01-29T17:26:17.722Z,4.10
2019-01-29T17:28:48.848Z,3.90
2019-01-29T17:31:19.830Z,3.98
2019-01-29T17:33:50.867Z,4.00
2019-01-29T17:36:21.531Z,3.83
2019-01-29T17:38:52.314Z,4.17
2019-01-29T17:41:22.653Z,3.67
2019-01-29T17:43:54.661Z,3.93
2019-01-29T17:46:25.732Z,4.10
2019-01-29T17:48:56.363Z,4.17
2019-01-29T17:51:26.799Z,4.30
2019-01-29T17:53:57.644Z,4.23
2019-01-29T17:56:28.238Z,4.20
2019-01-29T17:59:00.264Z,4.00
2019-01-29T18:01:31.533Z,4.05
2019-01-29T18:04:04.302Z,3.43
2019-01-29T18:06:35.068Z,3.60
2019-01-29T18:09:10.313Z,3.87
2019-01-29T18:11:41.084Z,4.03
2019-01-29T18:14:11.884Z,3.93
2019-01-29T18:16:42.940Z,4.33
2019-01-29T18:19:16.408Z,3.90
2019-01-29T18:21:56.723Z,4.22
2019-01-29T18:24:19.977Z,4.63
2019-01-29T18:26:51.024Z,4.10
2019-01-29T18:29:24.264Z,4.22
2019-01-29T18:31:55.069Z,4.63
2019-01-29T18:34:27.146Z,4.34
2019-01-29T18:37:02.878Z,3.77
2019-01-29T18:39:33.516Z,4.17
2019-01-29T18:42:06.597Z,4.10
2019-01-29T18:44:38.510Z,4.24
2019-01-29T18:47:09.157Z,5.20
2019-01-29T18:49:39.881Z,4.23
2019-01-29T18:52:10.688Z,4.07
2019-01-29T18:54:43.849Z,4.47
2019-01-29T18:57:14.560Z,4.50
2019-01-29T18:59:45.160Z,4.47
2019-01-29T19:02:15.807Z,4.30
2019-01-29T19:04:47.270Z,4.30
2019-01-29T19:07:17.780Z,4.50
2019-01-29T19:09:48.529Z,4.60
2019-01-29T19:12:20.501Z,5.00
2019-01-29T19:14:51.500Z,3.83
2019-01-29T19:17:28.330Z,4.28
2019-01-29T19:19:59.317Z,3.90
2019-01-29T19:22:33.727Z,4.15
2019-01-29T19:25:04.731Z,3.77
2019-01-29T19:27:40.776Z,3.87
2019-01-29T19:30:11.141Z,4.10
2019-01-29T19:32:43.954Z,3.92
2019-01-29T19:35:22.186Z,3.80
2019-01-29T19:37:54.715Z,3.60
2019-01-29T19:40:29.101Z,3.50
2019-01-29T19:43:00.703Z,3.57
2019-01-29T19:45:33.854Z,4.43
2019-01-29T19:48:07.652Z,4.00
2019-01-29T19:53:17.505Z,4.20
2019-01-29T19:55:51.574Z,4.26
2019-01-29T19:58:32.046Z,4.00
2019-01-29T20:00:57.181Z,4.40
2019-01-29T20:03:30.667Z,3.70
2019-01-29T20:06:01.705Z,4.48
2019-01-29T20:08:34.873Z,3.87
2019-01-29T20:11:05.642Z,4.00
2019-01-29T20:13:36.393Z,4.20
2019-01-29T20:16:06.991Z,3.93
2019-01-29T20:18:37.404Z,4.70
2019-01-29T20:21:09.854Z,4.08
2019-01-29T20:23:41.360Z,4.83
2019-01-29T20:26:12.065Z,4.83
2019-01-29T20:28:42.926Z,4.93
2019-01-29T20:31:15.041Z,4.68
2019-01-29T20:33:46.560Z,4.70
2019-01-29T20:36:17.604Z,4.37
2019-01-29T20:38:48.376Z,4.73
2019-01-29T20:41:19.166Z,4.97
2019-01-29T20:43:49.619Z,4.90
2019-01-29T20:46:20.386Z,4.30
2019-01-29T20:48:51.228Z,5.40
2019-01-29T20:51:21.806Z,4.70
2019-01-29T20:53:52.396Z,4.93
2019-01-29T20:56:23.525Z,5.27
2019-01-29T20:58:54.277Z,4.72
2019-01-29T21:01:24.747Z,5.40
2019-01-29T21:03:55.727Z,5.37
2019-01-29T21:06:26.292Z,4.73
2019-01-29T21:08:57.151Z,4.95
2019-01-29T21:11:27.599Z,4.93
2019-01-29T21:13:58.112Z,4.83
2019-01-29T21:16:28.622Z,5.23
2019-01-29T21:18:59.437Z,5.12
2019-01-29T21:21:30.341Z,4.93
2019-01-29T21:24:02.169Z,5.40
2019-01-29T21:26:32.581Z,4.80
2019-01-29T21:29:03.424Z,4.63
2019-01-29T21:31:33.942Z,4.10
2019-01-29T21:34:06.448Z,4.55
2019-01-29T21:36:38.360Z,5.30
2019-01-29T21:39:09.992Z,4.50
2019-01-29T21:41:40.349Z,4.20
2019-01-29T21:44:10.728Z,4.70
2019-01-29T21:46:41.110Z,4.47
2019-01-29T21:49:13.868Z,4.03
2019-01-29T21:51:43.893Z,4.03
2019-01-29T21:54:14.268Z,3.87
2019-01-29T21:56:45.068Z,3.85
2019-01-29T21:59:15.870Z,3.80
2019-01-29T22:01:46.371Z,4.10
2019-01-29T22:04:16.812Z,3.43
2019-01-29T22:06:47.465Z,4.05
2019-01-29T22:09:19.210Z,3.60
2019-01-29T22:11:50.058Z,3.57
2019-01-29T22:14:22.469Z,3.90
2019-01-29T22:16:55.163Z,3.67
2019-01-29T22:19:27.906Z,3.70
2019-01-29T22:22:03.347Z,3.67
2019-01-29T22:24:33.843Z,3.57
2019-01-29T22:27:04.874Z,3.53
2019-01-29T22:29:35.700Z,3.67
2019-01-29T22:32:06.545Z,3.63
2019-01-29T22:34:37.919Z,3.10
2019-01-29T22:37:08.758Z,3.70
2019-01-29T22:39:39.404Z,3.57
2019-01-29T22:42:11.582Z,3.37
2019-01-29T22:44:42.065Z,3.40
2019-01-29T22:47:13.988Z,3.22
2019-01-29T22:49:44.339Z,3.53
2019-01-29T22:52:16.471Z,3.50
2019-01-29T22:54:47.076Z,3.70
2019-01-29T22:57:23.033Z,3.50
2019-01-29T22:59:53.510Z,3.50
2019-01-29T23:02:28.152Z,3.58
2019-01-29T23:04:59.718Z,4.00
2019-01-29T23:07:34.627Z,3.90
2019-01-29T23:10:11.745Z,4.13
2019-01-29T23:12:42.532Z,3.83
2019-01-29T23:15:14.250Z,3.67
2019-01-29T23:17:46.062Z,3.80
2019-01-29T23:20:17.295Z,4.13
2019-01-29T23:22:47.901Z,3.80
2019-01-29T23:25:19.868Z,4.33
2019-01-29T23:27:54.223Z,4.28
2019-01-29T23:30:25.685Z,3.70
2019-01-29T23:33:00.433Z,4.17
2019-01-29T23:35:32.167Z,3.90
2019-01-29T23:38:04.314Z,3.58
2019-01-29T23:40:36.808Z,3.93
2019-01-29T23:43:10.362Z,3.83
2019-01-29T23:45:40.715Z,3.70
2019-01-29T23:48:15.870Z,4.16
2019-01-29T23:50:46.238Z,3.20
2019-01-29T23:53:17.776Z,4.28
2019-01-29T23:55:48.948Z,3.50
2019-01-29T23:58:24.692Z,3.97
